createdAt,value
2018-06-08T00:01:29.687Z,16.79
2018-06-08T00:04:33.970Z,16.78
2018-06-08T00:07:39.498Z,16.84
2018-06-08T00:10:43.777Z,16.80
2018-06-08T00:13:48.185Z,16.74
2018-06-08T00:16:52.523Z,16.70
2018-06-08T00:19:56.804Z,16.72
2018-06-08T00:23:01.293Z,16.66
2018-06-08T00:26:05.665Z,16.62
2018-06-08T00:29:09.972Z,16.74
2018-06-08T00:32:14.377Z,16.80
2018-06-08T00:35:18.678Z,16.76
2018-06-08T00:38:23.051Z,16.76
2018-06-08T00:41:27.415Z,16.77
2018-06-08T00:44:32.730Z,16.73
2018-06-08T00:47:37.052Z,16.61
2018-06-08T00:50:41.534Z,16.55
2018-06-08T00:53:45.821Z,16.55
2018-06-08T00:57:04.635Z,16.47
2018-06-08T01:00:08.935Z,16.33
2018-06-08T01:03:13.253Z,16.23
2018-06-08T01:06:17.552Z,16.24
2018-06-08T01:09:21.879Z,16.17
2018-06-08T01:12:26.534Z,16.12
2018-06-08T01:15:30.908Z,16.14
2018-06-08T01:18:35.200Z,16.08
2018-06-08T01:21:39.750Z,16.00
2018-06-08T01:24:44.253Z,15.97
2018-06-08T01:27:48.540Z,15.92
2018-06-08T01:30:52.819Z,15.90
2018-06-08T01:33:58.241Z,15.85
2018-06-08T01:37:02.533Z,15.84
2018-06-08T01:40:06.916Z,15.85
2018-06-08T01:43:11.348Z,15.82
2018-06-08T01:46:15.644Z,15.82
2018-06-08T01:49:19.930Z,15.80
2018-06-08T01:52:25.510Z,15.75
2018-06-08T01:55:29.822Z,15.75
2018-06-08T01:58:34.126Z,15.71
2018-06-08T02:01:38.401Z,15.74
2018-06-08T02:04:42.655Z,15.70
2018-06-08T02:07:46.939Z,15.68
2018-06-08T02:10:51.225Z,15.64
2018-06-08T02:13:55.493Z,15.58
2018-06-08T02:16:59.825Z,15.51
2018-06-08T02:20:04.125Z,15.52
2018-06-08T02:23:08.388Z,15.53
2018-06-08T02:26:12.658Z,15.53
2018-06-08T02:29:16.923Z,15.36
2018-06-08T02:32:21.208Z,15.36
2018-06-08T02:35:25.460Z,15.35
2018-06-08T02:38:29.729Z,15.27
2018-06-08T02:41:34.009Z,15.25
2018-06-08T02:44:38.274Z,15.24
2018-06-08T02:47:42.531Z,15.21
2018-06-08T02:50:46.792Z,15.19
2018-06-08T02:53:51.094Z,15.22
2018-06-08T02:56:55.350Z,15.14
2018-06-08T02:59:59.628Z,15.16
2018-06-08T03:03:04.029Z,15.17
2018-06-08T03:06:08.353Z,15.19
2018-06-08T03:09:12.781Z,15.14
2018-06-08T03:12:17.041Z,15.13
2018-06-08T03:15:21.317Z,15.21
2018-06-08T03:18:25.584Z,15.13
2018-06-08T03:21:30.149Z,15.14
2018-06-08T03:24:34.442Z,15.09
2018-06-08T03:27:38.861Z,15.05
2018-06-08T03:30:43.129Z,15.08
2018-06-08T03:33:47.636Z,15.01
2018-06-08T03:36:51.937Z,15.08
2018-06-08T03:39:56.279Z,15.07
2018-06-08T03:43:00.304Z,15.18
2018-06-08T03:46:04.583Z,15.13
2018-06-08T03:49:08.837Z,15.10
2018-06-08T03:52:13.135Z,15.19
2018-06-08T03:55:17.424Z,15.07
2018-06-08T03:58:21.677Z,14.73
2018-06-08T04:01:26.168Z,14.18
2018-06-08T04:04:30.423Z,14.46
2018-06-08T04:07:34.743Z,14.61
2018-06-08T04:10:39.025Z,14.82
2018-06-08T04:13:43.269Z,14.81
2018-06-08T04:16:47.771Z,14.96
2018-06-08T04:19:52.171Z,15.12
2018-06-08T04:22:56.438Z,15.09
2018-06-08T04:26:03.577Z,15.30
2018-06-08T04:29:10.180Z,15.54
2018-06-08T04:32:14.473Z,15.72
2018-06-08T04:35:18.880Z,15.83
2018-06-08T04:38:23.289Z,16.02
2018-06-08T04:41:28.031Z,15.90
2018-06-08T04:44:32.613Z,16.23
2018-06-08T04:47:37.113Z,16.43
2018-06-08T04:50:41.896Z,16.58
2018-06-08T04:53:46.223Z,16.67
2018-06-08T04:56:53.180Z,16.85
2018-06-08T04:59:57.424Z,17.26
2018-06-08T05:03:01.681Z,17.32
2018-06-08T05:06:06.847Z,17.77
2018-06-08T05:09:11.389Z,17.96
2018-06-08T05:12:15.744Z,18.25
2018-06-08T05:15:20.225Z,18.32
2018-06-08T05:18:24.988Z,18.37
2018-06-08T05:21:29.418Z,17.53
2018-06-08T05:24:35.450Z,17.77
2018-06-08T05:27:40.894Z,18.12
2018-06-08T05:30:45.742Z,18.08
2018-06-08T05:33:50.608Z,17.89
2018-06-08T05:36:55.853Z,17.68
2018-06-08T05:40:00.257Z,17.72
2018-06-08T05:43:04.679Z,17.83
2018-06-08T05:46:08.957Z,17.87
2018-06-08T05:49:13.220Z,18.14
2018-06-08T05:52:18.026Z,18.18
2018-06-08T05:55:22.353Z,18.47
2018-06-08T05:58:26.615Z,18.36
2018-06-08T06:01:31.638Z,18.74
2018-06-08T06:04:36.393Z,18.99
2018-06-08T06:07:40.658Z,19.47
2018-06-08T06:10:44.976Z,19.61
2018-06-08T06:13:49.216Z,19.88
2018-06-08T06:16:53.468Z,18.62
2018-06-08T06:19:57.698Z,18.08
2018-06-08T06:23:01.966Z,17.78
2018-06-08T06:26:06.434Z,17.90
2018-06-08T06:29:10.760Z,18.79
2018-06-08T06:32:15.227Z,19.21
2018-06-08T06:35:19.547Z,19.55
2018-06-08T06:38:23.809Z,19.66
2018-06-08T06:41:28.053Z,20.00
2018-06-08T06:44:32.382Z,19.73
2018-06-08T06:47:36.503Z,20.52
2018-06-08T06:50:40.760Z,22.70
2018-06-08T06:53:45.216Z,23.06
2018-06-08T06:56:49.553Z,23.96
2018-06-08T06:59:53.816Z,22.78
2018-06-08T07:02:58.073Z,22.71
2018-06-08T07:06:02.351Z,22.57
2018-06-08T07:09:09.568Z,21.19
2018-06-08T07:12:14.309Z,20.21
2018-06-08T07:15:18.593Z,22.36
2018-06-08T07:18:23.430Z,22.11
2018-06-08T07:21:27.692Z,22.59
2018-06-08T07:24:32.517Z,22.54
2018-06-08T07:27:36.765Z,22.85
2018-06-08T07:30:41.040Z,23.61
2018-06-08T07:33:45.392Z,23.81
2018-06-08T07:36:49.643Z,24.41
2018-06-08T07:39:53.976Z,24.00
2018-06-08T07:42:58.267Z,23.40
2018-06-08T07:46:02.628Z,22.63
2018-06-08T07:49:06.957Z,22.55
2018-06-08T07:52:11.306Z,22.91
2018-06-08T07:55:15.694Z,21.78
2018-06-08T07:58:19.964Z,22.28
2018-06-08T08:01:24.228Z,22.93
2018-06-08T08:04:28.524Z,23.68
2018-06-08T08:07:32.917Z,23.50
2018-06-08T08:10:37.182Z,23.12
2018-06-08T08:13:41.895Z,23.26
2018-06-08T08:16:46.172Z,22.75
2018-06-08T08:19:50.442Z,22.60
2018-06-08T08:22:54.864Z,22.75
2018-06-08T08:25:59.153Z,22.47
2018-06-08T08:29:03.450Z,22.74
2018-06-08T08:32:08.102Z,22.64
2018-06-08T08:35:12.599Z,22.22
2018-06-08T08:38:16.872Z,23.19
2018-06-08T08:41:21.304Z,22.90
2018-06-08T08:44:25.574Z,23.30
2018-06-08T08:47:29.829Z,23.06
2018-06-08T08:50:34.238Z,23.76
2018-06-08T08:53:38.534Z,24.20
2018-06-08T08:56:42.886Z,23.83
2018-06-08T08:59:47.492Z,23.63
2018-06-08T09:02:51.981Z,23.16
2018-06-08T09:05:56.422Z,23.13
2018-06-08T09:09:00.776Z,23.42
2018-06-08T09:12:05.297Z,23.40
2018-06-08T09:15:09.773Z,23.42
2018-06-08T09:18:13.968Z,23.58
2018-06-08T09:21:18.311Z,23.67
2018-06-08T09:24:22.634Z,23.73
2018-06-08T09:27:27.002Z,22.80
2018-06-08T09:30:31.208Z,22.58
2018-06-08T09:33:35.736Z,22.78
2018-06-08T09:36:40.014Z,23.85
2018-06-08T09:39:44.624Z,24.62
2018-06-08T09:42:49.289Z,24.92
2018-06-08T09:45:53.578Z,24.77
2018-06-08T09:48:58.720Z,24.94
2018-06-08T09:52:02.980Z,23.90
2018-06-08T09:55:07.721Z,24.12
2018-06-08T09:58:12.013Z,24.04
2018-06-08T10:01:16.293Z,23.79
2018-06-08T10:04:20.605Z,24.74
2018-06-08T10:07:24.885Z,24.26
2018-06-08T10:10:29.596Z,24.90
2018-06-08T10:13:33.979Z,25.28
2018-06-08T10:16:38.419Z,25.40
2018-06-08T10:19:42.933Z,23.91
2018-06-08T10:22:47.165Z,23.89
2018-06-08T10:25:51.515Z,24.44
2018-06-08T10:28:55.840Z,24.49
2018-06-08T10:31:59.894Z,25.01
2018-06-08T10:35:04.274Z,25.22
2018-06-08T10:38:08.529Z,24.98
2018-06-08T10:41:12.810Z,24.82
2018-06-08T10:44:17.054Z,24.54
2018-06-08T10:47:21.479Z,24.96
2018-06-08T10:50:26.596Z,25.37
2018-06-08T10:53:32.150Z,25.23
2018-06-08T10:56:36.604Z,25.57
2018-06-08T10:59:41.950Z,24.87
2018-06-08T11:02:46.371Z,25.10
2018-06-08T11:05:50.655Z,25.44
2018-06-08T11:08:54.982Z,25.48
2018-06-08T11:11:59.494Z,25.16
2018-06-08T11:15:03.865Z,25.19
2018-06-08T11:18:08.535Z,25.12
2018-06-08T11:21:12.872Z,25.27
2018-06-08T11:24:17.128Z,25.55
2018-06-08T11:27:21.637Z,25.18
2018-06-08T11:30:25.943Z,24.91
2018-06-08T11:33:30.412Z,25.13
2018-06-08T11:36:34.978Z,25.03
2018-06-08T11:39:39.216Z,25.49
2018-06-08T11:42:43.552Z,25.22
2018-06-08T11:45:48.228Z,25.56
2018-06-08T11:48:52.733Z,26.26
2018-06-08T11:51:57.745Z,26.09
2018-06-08T11:55:02.035Z,26.18
2018-06-08T11:58:06.297Z,26.15
2018-06-08T12:01:10.888Z,26.37
2018-06-08T12:04:15.157Z,26.41
2018-06-08T12:07:19.421Z,25.82
2018-06-08T12:10:23.661Z,25.97
2018-06-08T12:13:28.077Z,25.98
2018-06-08T12:16:32.422Z,25.71
2018-06-08T12:19:36.668Z,25.75
2018-06-08T12:22:41.295Z,25.95
2018-06-08T12:25:45.644Z,25.81
2018-06-08T12:28:49.893Z,25.90
2018-06-08T12:31:54.156Z,25.73
2018-06-08T12:34:58.436Z,25.52
2018-06-08T12:38:02.725Z,25.27
2018-06-08T12:41:06.972Z,25.21
2018-06-08T12:44:11.387Z,25.29
2018-06-08T12:47:16.298Z,25.39
2018-06-08T12:50:20.600Z,25.78
2018-06-08T12:53:24.849Z,26.19
2018-06-08T12:56:29.158Z,26.15
2018-06-08T12:59:33.414Z,26.03
2018-06-08T13:02:37.667Z,26.31
2018-06-08T13:05:41.973Z,26.62
2018-06-08T13:08:46.349Z,26.92
2018-06-08T13:11:50.338Z,27.34
2018-06-08T13:14:54.685Z,26.79
2018-06-08T13:17:58.988Z,26.94
2018-06-08T13:21:03.257Z,26.69
2018-06-08T13:24:07.543Z,26.73
2018-06-08T13:27:11.781Z,26.68
2018-06-08T13:30:16.090Z,26.77
2018-06-08T13:33:20.510Z,26.37
2018-06-08T13:36:26.453Z,26.47
2018-06-08T13:39:30.837Z,26.47
2018-06-08T13:42:35.062Z,26.21
2018-06-08T13:45:39.447Z,26.20
2018-06-08T13:48:43.921Z,26.24
2018-06-08T13:51:48.340Z,26.05
2018-06-08T13:54:56.756Z,26.35
2018-06-08T13:58:01.517Z,26.48
2018-06-08T14:01:05.898Z,26.91
2018-06-08T14:04:11.192Z,26.66
2018-06-08T14:07:15.406Z,26.34
2018-06-08T14:10:19.801Z,26.33
2018-06-08T14:13:24.114Z,26.25
2018-06-08T14:16:28.610Z,26.71
2018-06-08T14:19:32.953Z,26.66
2018-06-08T14:22:37.324Z,26.59
2018-06-08T14:25:41.908Z,26.08
2018-06-08T14:28:47.036Z,26.28
2018-06-08T14:31:51.439Z,26.35
2018-06-08T14:34:56.657Z,25.97
2018-06-08T14:38:01.282Z,25.86
2018-06-08T14:41:05.793Z,24.43
2018-06-08T14:44:10.197Z,24.16
2018-06-08T14:47:14.572Z,24.30
2018-06-08T14:50:18.767Z,24.78
2018-06-08T14:53:23.416Z,24.97
2018-06-08T14:56:28.060Z,24.90
2018-06-08T14:59:32.564Z,25.13
2018-06-08T15:02:37.594Z,25.16
2018-06-08T15:05:48.672Z,24.78
2018-06-08T15:08:53.018Z,24.54
2018-06-08T15:11:57.351Z,24.09
2018-06-08T15:15:01.672Z,23.56
2018-06-08T15:18:05.920Z,23.06
2018-06-08T15:21:10.424Z,22.43
2018-06-08T15:24:14.672Z,21.83
2018-06-08T15:27:19.810Z,21.30
2018-06-08T15:30:24.265Z,20.91
2018-06-08T15:33:28.647Z,20.81
2018-06-08T15:36:32.963Z,20.93
2018-06-08T15:39:37.292Z,21.05
2018-06-08T15:42:41.641Z,21.13
2018-06-08T15:45:45.893Z,21.39
2018-06-08T15:48:50.237Z,21.07
2018-06-08T15:51:54.615Z,20.98
2018-06-08T15:55:12.987Z,21.06
2018-06-08T15:58:17.505Z,21.12
2018-06-08T16:01:22.118Z,21.21
2018-06-08T16:04:27.155Z,21.15
2018-06-08T16:07:32.514Z,21.20
2018-06-08T16:10:37.430Z,21.59
2018-06-08T16:13:42.249Z,21.84
2018-06-08T16:16:49.534Z,21.91
2018-06-08T16:19:54.938Z,21.93
2018-06-08T16:22:59.475Z,22.19
2018-06-08T16:26:03.968Z,22.14
2018-06-08T16:29:09.117Z,22.11
2018-06-08T16:32:13.800Z,22.23
2018-06-08T16:35:18.319Z,21.89
2018-06-08T16:38:23.059Z,21.60
2018-06-08T16:41:28.182Z,21.67
2018-06-08T16:44:32.566Z,21.96
2018-06-08T16:47:36.991Z,22.45
2018-06-08T16:50:41.403Z,22.54
2018-06-08T16:53:46.012Z,22.68
2018-06-08T16:56:50.484Z,22.88
2018-06-08T16:59:54.846Z,23.12
2018-06-08T17:02:59.537Z,23.59
2018-06-08T17:06:03.898Z,22.95
2018-06-08T17:09:08.451Z,23.02
2018-06-08T17:12:12.806Z,23.07
2018-06-08T17:15:17.662Z,22.63
2018-06-08T17:18:24.238Z,22.45
2018-06-08T17:21:28.653Z,22.59
2018-06-08T17:24:32.961Z,22.58
2018-06-08T17:27:37.395Z,23.21
2018-06-08T17:30:41.700Z,22.46
2018-06-08T17:33:46.220Z,22.20
2018-06-08T17:36:50.614Z,22.40
2018-06-08T17:39:54.941Z,22.62
2018-06-08T17:42:59.374Z,22.59
2018-06-08T17:46:03.765Z,22.72
2018-06-08T17:49:08.077Z,22.53
2018-06-08T17:52:13.029Z,22.46
2018-06-08T17:55:17.424Z,22.36
2018-06-08T17:58:21.782Z,22.13
2018-06-08T18:01:26.358Z,22.17
2018-06-08T18:04:30.704Z,22.19
2018-06-08T18:07:34.997Z,21.89
2018-06-08T18:10:39.736Z,21.60
2018-06-08T18:13:44.112Z,21.46
2018-06-08T18:16:48.513Z,21.31
2018-06-08T18:19:52.917Z,21.24
2018-06-08T18:22:57.404Z,21.17
2018-06-08T18:26:01.742Z,21.11
2018-06-08T18:29:06.156Z,21.05
2018-06-08T18:32:10.521Z,20.84
2018-06-08T18:35:14.926Z,20.77
2018-06-08T18:38:19.293Z,20.64
2018-06-08T18:41:23.591Z,20.67
2018-06-08T18:44:27.886Z,20.61
2018-06-08T18:47:33.039Z,20.47
2018-06-08T18:50:37.344Z,20.44
2018-06-08T18:53:41.689Z,20.17
2018-06-08T18:56:46.251Z,20.16
2018-06-08T18:59:55.464Z,20.09
2018-06-08T19:02:59.977Z,19.92
2018-06-08T19:06:04.336Z,19.80
2018-06-08T19:09:09.836Z,19.80
2018-06-08T19:12:14.474Z,19.60
2018-06-08T19:15:19.036Z,19.55
2018-06-08T19:18:23.445Z,19.43
2018-06-08T19:21:27.849Z,19.34
2018-06-08T19:24:32.444Z,19.22
2018-06-08T19:27:36.737Z,19.05
2018-06-08T19:30:41.181Z,19.01
2018-06-08T19:33:45.501Z,18.98
2018-06-08T19:36:49.916Z,18.94
2018-06-08T19:39:54.334Z,18.88
2018-06-08T19:42:58.975Z,18.87
2018-06-08T19:46:03.550Z,18.81
2018-06-08T19:49:08.034Z,18.62
2018-06-08T19:52:12.336Z,18.61
2018-06-08T19:55:16.701Z,18.53
2018-06-08T19:58:21.083Z,18.58
2018-06-08T20:01:25.844Z,18.64
2018-06-08T20:04:30.331Z,18.63
2018-06-08T20:07:34.655Z,18.54
2018-06-08T20:10:40.021Z,18.54
2018-06-08T20:13:44.289Z,18.50
2018-06-08T20:16:48.693Z,18.44
2018-06-08T20:19:52.968Z,18.20
2018-06-08T20:22:57.316Z,18.13
2018-06-08T20:26:01.725Z,18.04
2018-06-08T20:29:06.766Z,17.91
2018-06-08T20:32:11.107Z,17.91
2018-06-08T20:35:15.425Z,17.92
2018-06-08T20:38:19.795Z,17.82
2018-06-08T20:41:24.157Z,17.75
2018-06-08T20:44:28.508Z,17.74
2018-06-08T20:47:33.089Z,17.63
2018-06-08T20:50:37.637Z,17.60
2018-06-08T20:53:41.977Z,17.54
2018-06-08T20:56:51.150Z,17.53
2018-06-08T20:59:55.550Z,17.46
2018-06-08T21:02:59.956Z,17.49
2018-06-08T21:06:04.280Z,17.40
2018-06-08T21:09:08.644Z,17.33
2018-06-08T21:12:13.013Z,17.31
2018-06-08T21:15:17.021Z,17.23
2018-06-08T21:18:21.777Z,17.23
2018-06-08T21:21:26.269Z,17.25
2018-06-08T21:24:31.550Z,17.29
2018-06-08T21:27:35.864Z,17.26
2018-06-08T21:30:40.280Z,17.15
2018-06-08T21:33:44.937Z,17.07
2018-06-08T21:36:49.277Z,16.94
2018-06-08T21:39:53.950Z,16.93
2018-06-08T21:42:58.224Z,16.91
2018-06-08T21:46:02.646Z,16.84
2018-06-08T21:49:06.899Z,16.91
2018-06-08T21:52:11.153Z,16.88
2018-06-08T21:55:15.434Z,16.82
2018-06-08T21:58:19.804Z,16.78
2018-06-08T22:01:24.209Z,16.84
2018-06-08T22:04:28.496Z,16.87
2018-06-08T22:07:33.003Z,16.83
2018-06-08T22:10:37.323Z,16.85
2018-06-08T22:13:41.692Z,16.82
2018-06-08T22:16:46.030Z,16.75
2018-06-08T22:19:50.294Z,16.75
2018-06-08T22:22:54.660Z,16.73
2018-06-08T22:25:58.949Z,16.72
2018-06-08T22:29:03.798Z,16.72
2018-06-08T22:32:08.049Z,16.67
2018-06-08T22:35:13.331Z,16.66
2018-06-08T22:38:17.638Z,16.61
2018-06-08T22:41:21.928Z,16.54
2018-06-08T22:44:26.481Z,16.53
2018-06-08T22:47:30.786Z,16.58
2018-06-08T22:50:35.089Z,16.53
2018-06-08T22:53:39.454Z,16.55
2018-06-08T22:56:43.924Z,16.52
2018-06-08T22:59:48.274Z,16.54
2018-06-08T23:02:52.722Z,16.45
2018-06-08T23:05:56.985Z,16.46
2018-06-08T23:09:01.235Z,16.43
2018-06-08T23:12:05.573Z,16.40
2018-06-08T23:15:09.892Z,16.39
2018-06-08T23:18:14.224Z,16.39
2018-06-08T23:21:18.519Z,16.40
2018-06-08T23:24:22.925Z,16.41
2018-06-08T23:27:27.188Z,16.41
2018-06-08T23:30:31.481Z,16.34
2018-06-08T23:33:35.807Z,16.37
2018-06-08T23:36:40.184Z,16.35
2018-06-08T23:39:44.650Z,16.38
2018-06-08T23:42:49.163Z,16.40
2018-06-08T23:45:53.421Z,16.32
2018-06-08T23:48:57.695Z,16.27
2018-06-08T23:52:02.032Z,16.23
2018-06-08T23:55:06.408Z,16.25
2018-06-08T23:58:10.748Z,16.28
